createdAt,value
2023-01-17T00:01:29.411Z,2.30
2023-01-17T00:03:01.064Z,2.15
2023-01-17T00:04:51.789Z,2.10
2023-01-17T00:06:45.626Z,4.35
2023-01-17T00:08:35.849Z,2.97
2023-01-17T00:10:13.905Z,3.67
2023-01-17T00:11:46.281Z,2.90
2023-01-17T00:13:18.014Z,3.55
2023-01-17T00:14:49.834Z,6.35
2023-01-17T00:16:21.490Z,3.42
2023-01-17T00:17:54.234Z,2.53
2023-01-17T00:19:44.411Z,2.92
2023-01-17T00:21:34.453Z,3.05
2023-01-17T00:23:26.710Z,3.00
2023-01-17T00:25:16.829Z,2.15
2023-01-17T00:27:07.160Z,2.58
2023-01-17T00:28:40.691Z,2.53
2023-01-17T00:30:12.712Z,4.35
2023-01-17T00:31:44.341Z,4.68
2023-01-17T00:33:16.097Z,3.03
2023-01-17T00:34:47.688Z,4.07
2023-01-17T00:36:19.327Z,2.30
2023-01-17T00:38:07.395Z,4.25
2023-01-17T00:39:38.986Z,1.65
2023-01-17T00:41:12.901Z,3.13
2023-01-17T00:42:47.133Z,3.33
2023-01-17T00:44:37.263Z,3.00
2023-01-17T00:46:27.587Z,2.90
2023-01-17T00:48:17.851Z,2.55
2023-01-17T00:50:08.034Z,2.80
2023-01-17T00:51:58.309Z,3.60
2023-01-17T00:53:49.002Z,2.22
2023-01-17T00:55:39.361Z,3.58
2023-01-17T00:57:29.525Z,2.88
2023-01-17T00:59:19.314Z,2.65
2023-01-17T01:01:09.358Z,3.70
2023-01-17T01:02:59.585Z,1.77
2023-01-17T01:04:49.600Z,1.45
2023-01-17T01:06:39.801Z,1.65
2023-01-17T01:08:43.167Z,2.40
2023-01-17T01:10:33.484Z,2.35
2023-01-17T01:12:23.864Z,1.55
2023-01-17T01:14:14.567Z,1.98
2023-01-17T01:16:04.856Z,1.70
2023-01-17T01:17:55.267Z,1.80
2023-01-17T01:19:45.427Z,1.60
2023-01-17T01:21:35.734Z,1.60
2023-01-17T01:23:26.019Z,1.42
2023-01-17T01:25:15.912Z,2.50
2023-01-17T01:27:05.850Z,2.30
2023-01-17T01:28:55.957Z,1.67
2023-01-17T01:30:46.119Z,3.15
2023-01-17T01:32:36.351Z,2.13
2023-01-17T01:34:08.090Z,1.52
2023-01-17T01:35:41.905Z,2.53
2023-01-17T01:37:13.493Z,1.92
2023-01-17T01:38:45.961Z,2.13
2023-01-17T01:40:19.256Z,2.30
2023-01-17T01:41:50.926Z,1.98
2023-01-17T01:44:03.783Z,1.85
2023-01-17T01:45:35.953Z,2.17
2023-01-17T01:47:13.432Z,2.70
2023-01-17T01:48:58.109Z,2.17
2023-01-17T01:50:33.443Z,2.45
2023-01-17T01:52:06.744Z,1.70
2023-01-17T01:53:42.718Z,3.20
2023-01-17T01:55:23.207Z,2.22
2023-01-17T01:56:59.040Z,3.47
2023-01-17T01:58:34.377Z,2.10
2023-01-17T02:00:11.656Z,3.03
2023-01-17T02:01:47.306Z,2.22
2023-01-17T02:03:25.949Z,1.15
2023-01-17T02:04:59.717Z,1.65
2023-01-17T02:06:39.289Z,1.95
2023-01-17T02:08:15.389Z,2.30
2023-01-17T02:09:47.057Z,1.77
2023-01-17T02:11:19.082Z,1.90
2023-01-17T02:12:52.977Z,2.15
2023-01-17T02:14:24.580Z,2.60
2023-01-17T02:16:08.252Z,2.47
2023-01-17T02:17:54.846Z,2.90
2023-01-17T02:19:29.691Z,2.45
2023-01-17T02:21:09.994Z,3.67
2023-01-17T02:22:47.511Z,3.00
2023-01-17T02:24:27.942Z,2.55
2023-01-17T02:26:30.415Z,2.72
2023-01-17T02:28:04.071Z,2.30
2023-01-17T02:30:12.841Z,3.45
2023-01-17T02:32:06.360Z,2.13
2023-01-17T02:34:11.302Z,2.38
2023-01-17T02:35:45.667Z,2.70
2023-01-17T02:37:26.351Z,4.45
2023-01-17T02:39:19.874Z,3.95
2023-01-17T02:41:07.704Z,2.50
2023-01-17T02:42:45.588Z,4.65
2023-01-17T02:44:20.237Z,2.58
2023-01-17T02:45:51.864Z,3.22
2023-01-17T02:47:28.150Z,2.70
2023-01-17T02:49:00.510Z,2.42
2023-01-17T02:50:49.064Z,4.13
2023-01-17T02:52:49.969Z,3.47
2023-01-17T02:54:28.443Z,2.47
2023-01-17T02:56:11.682Z,2.83
2023-01-17T02:58:05.777Z,3.58
2023-01-17T02:59:46.559Z,3.10
2023-01-17T03:01:55.808Z,2.25
2023-01-17T03:03:43.236Z,3.70
2023-01-17T03:05:23.972Z,2.55
2023-01-17T03:07:03.210Z,2.83
2023-01-17T03:08:34.875Z,3.28
2023-01-17T03:10:08.271Z,2.58
2023-01-17T03:11:39.885Z,3.10
2023-01-17T03:13:11.418Z,3.83
2023-01-17T03:14:42.954Z,3.83
2023-01-17T03:16:20.160Z,4.00
2023-01-17T03:17:55.439Z,3.13
2023-01-17T03:19:27.042Z,3.95
2023-01-17T03:20:58.675Z,4.60
2023-01-17T03:22:30.241Z,2.53
2023-01-17T03:24:03.019Z,3.03
2023-01-17T03:25:34.578Z,3.47
2023-01-17T03:27:06.232Z,3.85
2023-01-17T03:28:37.848Z,3.15
2023-01-17T03:30:10.029Z,3.45
2023-01-17T03:31:41.928Z,2.72
2023-01-17T03:33:17.069Z,3.40
2023-01-17T03:34:48.868Z,3.15
2023-01-17T03:36:20.452Z,2.13
2023-01-17T03:37:51.996Z,2.15
2023-01-17T03:39:23.589Z,2.53
2023-01-17T03:40:55.438Z,2.03
2023-01-17T03:42:27.078Z,1.75
2023-01-17T03:43:58.673Z,3.17
2023-01-17T03:45:30.267Z,1.85
2023-01-17T03:47:01.961Z,2.50
2023-01-17T03:48:33.941Z,2.85
2023-01-17T03:50:06.037Z,2.38
2023-01-17T03:51:37.610Z,3.75
2023-01-17T03:53:09.359Z,2.15
2023-01-17T03:54:41.116Z,2.70
2023-01-17T03:56:14.775Z,4.25
2023-01-17T03:57:46.331Z,1.77
2023-01-17T03:59:17.954Z,2.20
2023-01-17T04:00:49.609Z,3.95
2023-01-17T04:02:21.303Z,2.42
2023-01-17T04:03:52.941Z,2.33
2023-01-17T04:05:24.711Z,1.70
2023-01-17T04:06:56.260Z,1.92
2023-01-17T04:08:28.255Z,4.10
2023-01-17T04:09:59.924Z,6.15
2023-01-17T04:11:31.560Z,3.33
2023-01-17T04:13:03.212Z,4.50
2023-01-17T04:14:35.263Z,1.83
2023-01-17T04:16:13.254Z,2.15
2023-01-17T04:17:44.841Z,2.33
2023-01-17T04:19:17.033Z,2.25
2023-01-17T04:20:48.693Z,4.30
2023-01-17T04:22:20.313Z,2.85
2023-01-17T04:23:51.977Z,2.50
2023-01-17T04:25:25.640Z,2.55
2023-01-17T04:26:57.288Z,3.58
2023-01-17T04:28:29.107Z,1.63
2023-01-17T04:30:00.844Z,2.50
2023-01-17T04:31:32.447Z,1.77
2023-01-17T04:33:05.225Z,2.22
2023-01-17T04:34:36.819Z,3.50
2023-01-17T04:36:08.758Z,1.83
2023-01-17T04:37:40.553Z,2.47
2023-01-17T04:39:12.122Z,2.35
2023-01-17T04:40:43.702Z,3.78
2023-01-17T04:42:15.383Z,2.47
2023-01-17T04:43:47.094Z,4.35
2023-01-17T04:45:19.674Z,1.92
2023-01-17T04:46:51.363Z,4.45
2023-01-17T04:48:23.062Z,1.95
2023-01-17T04:49:54.800Z,2.45
2023-01-17T04:51:26.501Z,3.42
2023-01-17T04:52:59.083Z,3.10
2023-01-17T04:54:30.707Z,2.47
2023-01-17T04:56:03.004Z,2.60
2023-01-17T04:57:34.886Z,3.22
2023-01-17T04:59:06.548Z,2.60
2023-01-17T05:00:38.111Z,2.20
2023-01-17T05:02:10.313Z,2.70
2023-01-17T05:03:41.894Z,2.35
2023-01-17T05:05:13.549Z,3.60
2023-01-17T05:06:45.254Z,2.60
2023-01-17T05:08:16.872Z,4.05
2023-01-17T05:09:48.464Z,6.30
2023-01-17T05:11:20.049Z,4.82
2023-01-17T05:12:55.504Z,6.72
2023-01-17T05:14:27.142Z,4.13
2023-01-17T05:15:59.027Z,6.03
2023-01-17T05:17:30.636Z,5.22
2023-01-17T05:19:02.238Z,2.80
2023-01-17T05:20:35.253Z,3.00
2023-01-17T05:22:15.238Z,3.83
2023-01-17T05:23:47.066Z,4.45
2023-01-17T05:25:18.615Z,3.13
2023-01-17T05:26:54.741Z,4.13
2023-01-17T05:28:26.491Z,4.45
2023-01-17T05:29:58.134Z,5.75
2023-01-17T05:31:29.804Z,3.72
2023-01-17T05:33:01.523Z,5.22
2023-01-17T05:34:33.268Z,4.93
2023-01-17T05:36:05.150Z,3.33
2023-01-17T05:37:36.713Z,4.82
2023-01-17T05:39:08.371Z,4.40
2023-01-17T05:40:40.041Z,3.00
2023-01-17T05:42:11.605Z,4.07
2023-01-17T05:43:43.201Z,4.63
2023-01-17T05:45:17.130Z,3.22
2023-01-17T05:46:48.729Z,4.18
2023-01-17T05:48:20.906Z,3.20
2023-01-17T05:49:52.536Z,4.50
2023-01-17T05:51:24.235Z,4.25
2023-01-17T05:53:01.049Z,4.32
2023-01-17T05:54:32.852Z,3.33
2023-01-17T05:56:04.710Z,3.92
2023-01-17T05:57:36.325Z,5.13
2023-01-17T05:59:07.977Z,3.25
2023-01-17T06:00:39.801Z,2.75
2023-01-17T06:02:11.454Z,5.32
2023-01-17T06:03:43.104Z,3.80
2023-01-17T06:05:15.619Z,5.18
2023-01-17T06:06:47.231Z,5.05
2023-01-17T06:08:19.294Z,4.93
2023-01-17T06:09:51.022Z,10.73
2023-01-17T06:11:22.726Z,4.35
2023-01-17T06:13:09.023Z,6.00
2023-01-17T06:14:40.675Z,3.72
2023-01-17T06:16:15.509Z,7.55
2023-01-17T06:17:47.223Z,5.43
2023-01-17T06:19:18.845Z,4.75
2023-01-17T06:20:56.947Z,6.68
2023-01-17T06:22:28.572Z,4.32
2023-01-17T06:24:00.577Z,4.72
2023-01-17T06:25:37.981Z,6.43
2023-01-17T06:27:10.582Z,10.63
2023-01-17T06:28:42.349Z,6.03
2023-01-17T06:30:14.269Z,8.23
2023-01-17T06:31:45.971Z,6.40
2023-01-17T06:33:17.711Z,10.63
2023-01-17T06:34:49.333Z,7.45
2023-01-17T06:36:21.264Z,13.30
2023-01-17T06:37:55.371Z,15.07
2023-01-17T06:39:26.990Z,14.23
2023-01-17T06:41:00.423Z,8.90
2023-01-17T06:42:32.301Z,8.77
2023-01-17T06:44:07.569Z,7.70
2023-01-17T06:45:39.208Z,7.55
2023-01-17T06:47:10.929Z,6.53
2023-01-17T06:48:45.186Z,6.32
2023-01-17T06:50:18.071Z,5.35
2023-01-17T06:51:49.922Z,3.95
2023-01-17T06:53:21.649Z,9.30
2023-01-17T06:54:53.243Z,6.43
2023-01-17T06:56:24.896Z,12.70
2023-01-17T06:57:59.498Z,12.38
2023-01-17T06:59:31.101Z,16.45
2023-01-17T07:01:11.309Z,12.85
2023-01-17T07:02:42.989Z,12.57
2023-01-17T07:04:14.612Z,8.90
2023-01-17T07:05:46.260Z,9.30
2023-01-17T07:07:17.963Z,8.82
2023-01-17T07:08:49.795Z,8.50
2023-01-17T07:10:23.634Z,5.70
2023-01-17T07:11:59.650Z,11.93
2023-01-17T07:13:36.355Z,13.07
2023-01-17T07:15:08.745Z,11.13
2023-01-17T07:16:40.930Z,11.27
2023-01-17T07:18:12.627Z,7.47
2023-01-17T07:19:44.982Z,4.18
2023-01-17T07:21:16.738Z,4.75
2023-01-17T07:22:48.370Z,8.07
2023-01-17T07:24:21.204Z,7.38
2023-01-17T07:25:54.711Z,10.55
2023-01-17T07:27:27.755Z,10.18
2023-01-17T07:28:59.693Z,13.15
2023-01-17T07:30:31.302Z,7.45
2023-01-17T07:32:03.286Z,13.80
2023-01-17T07:33:35.490Z,10.60
2023-01-17T07:35:07.471Z,9.63
2023-01-17T07:36:39.125Z,10.00
2023-01-17T07:38:18.952Z,10.82
2023-01-17T07:39:50.685Z,9.35
2023-01-17T07:41:22.545Z,8.27
2023-01-17T07:43:01.072Z,5.30
2023-01-17T07:44:32.699Z,8.90
2023-01-17T07:46:06.333Z,10.52
2023-01-17T07:47:37.913Z,9.77
2023-01-17T07:49:09.520Z,8.38
2023-01-17T07:50:41.308Z,9.02
2023-01-17T07:52:12.901Z,9.95
2023-01-17T07:53:44.496Z,10.75
2023-01-17T07:55:16.148Z,11.30
2023-01-17T07:56:47.815Z,12.90
2023-01-17T07:58:20.249Z,13.63
2023-01-17T07:59:52.300Z,13.80
2023-01-17T08:01:24.206Z,14.35
2023-01-17T08:03:01.267Z,8.82
2023-01-17T08:04:35.186Z,8.93
2023-01-17T08:06:13.924Z,15.05
2023-01-17T08:07:45.595Z,21.58
2023-01-17T08:09:17.267Z,43.75
2023-01-17T08:10:49.637Z,46.38
2023-01-17T08:12:21.445Z,39.67
2023-01-17T08:13:59.337Z,27.50
2023-01-17T08:15:31.060Z,93.07
2023-01-17T08:17:16.841Z,39.30
2023-01-17T08:18:48.509Z,97.93
2023-01-17T08:20:21.311Z,61.63
2023-01-17T08:21:52.964Z,40.00
2023-01-17T08:23:25.420Z,28.05
2023-01-17T08:24:57.018Z,15.80
2023-01-17T08:26:28.604Z,12.55
2023-01-17T08:28:00.222Z,11.13
2023-01-17T08:29:31.893Z,10.98
2023-01-17T08:31:08.933Z,8.35
2023-01-17T08:32:40.958Z,8.55
2023-01-17T08:34:14.155Z,7.30
2023-01-17T08:35:54.883Z,7.88
2023-01-17T08:37:26.537Z,9.60
2023-01-17T08:38:58.920Z,9.50
2023-01-17T08:40:32.716Z,8.38
2023-01-17T08:42:04.679Z,16.65
2023-01-17T08:43:36.408Z,6.90
2023-01-17T08:45:10.108Z,8.75
2023-01-17T08:46:44.228Z,9.32
2023-01-17T08:48:15.849Z,8.02
2023-01-17T08:49:47.444Z,9.75
2023-01-17T08:51:19.014Z,9.48
2023-01-17T08:52:51.119Z,7.75
2023-01-17T08:54:23.038Z,9.10
2023-01-17T08:56:03.116Z,10.65
2023-01-17T08:57:34.857Z,8.50
2023-01-17T08:59:06.491Z,9.85
2023-01-17T09:00:38.138Z,9.60
2023-01-17T09:02:15.259Z,8.98
2023-01-17T09:03:49.406Z,9.57
2023-01-17T09:05:21.316Z,10.95
2023-01-17T09:06:52.988Z,13.10
2023-01-17T09:08:24.562Z,10.23
2023-01-17T09:09:56.197Z,14.15
2023-01-17T09:11:27.973Z,10.27
2023-01-17T09:12:59.936Z,5.97
2023-01-17T09:14:31.745Z,9.70
2023-01-17T09:16:04.502Z,6.75
2023-01-17T09:17:36.409Z,5.05
2023-01-17T09:19:09.127Z,4.05
2023-01-17T09:20:40.840Z,4.78
2023-01-17T09:22:12.674Z,5.28
2023-01-17T09:23:45.329Z,3.80
2023-01-17T09:25:17.165Z,4.38
2023-01-17T09:26:48.967Z,6.40
2023-01-17T09:28:21.125Z,6.60
2023-01-17T09:29:52.822Z,5.93
2023-01-17T09:31:27.108Z,6.63
2023-01-17T09:32:58.964Z,4.72
2023-01-17T09:34:30.651Z,6.13
2023-01-17T09:36:04.410Z,8.85
2023-01-17T09:37:36.932Z,9.68
2023-01-17T09:39:10.564Z,8.07
2023-01-17T09:40:46.711Z,9.55
2023-01-17T09:44:29.038Z,11.20
2023-01-17T09:46:01.520Z,9.57
2023-01-17T09:47:36.653Z,9.93
2023-01-17T09:49:46.402Z,13.30
2023-01-17T09:51:26.932Z,8.27
2023-01-17T09:53:05.325Z,8.05
2023-01-17T09:54:42.291Z,8.55
2023-01-17T09:56:27.899Z,11.48
2023-01-17T09:58:27.360Z,10.32
2023-01-17T10:00:12.935Z,12.05
2023-01-17T10:02:05.515Z,11.90
2023-01-17T10:04:02.020Z,11.50
2023-01-17T10:05:57.912Z,15.48
2023-01-17T10:07:45.614Z,15.23
2023-01-17T10:09:48.204Z,13.27
2023-01-17T10:11:34.957Z,10.60
2023-01-17T10:13:46.632Z,7.50
2023-01-17T10:15:49.039Z,3.88
2023-01-17T10:17:36.517Z,8.52
2023-01-17T10:19:26.274Z,5.93
2023-01-17T10:21:12.975Z,4.20
2023-01-17T10:23:04.050Z,7.07
2023-01-17T10:24:51.894Z,5.70
2023-01-17T10:26:25.703Z,2.83
2023-01-17T10:27:59.513Z,3.63
2023-01-17T10:29:35.069Z,4.72
2023-01-17T10:31:20.715Z,3.35
2023-01-17T10:32:52.441Z,4.63
2023-01-17T10:35:02.437Z,5.03
2023-01-17T10:36:41.928Z,3.17
2023-01-17T10:38:15.034Z,4.05
2023-01-17T10:39:49.211Z,4.60
2023-01-17T10:41:29.839Z,4.97
2023-01-17T10:43:04.993Z,3.40
2023-01-17T10:45:04.259Z,3.42
2023-01-17T10:46:45.253Z,5.32
2023-01-17T10:48:33.884Z,5.05
2023-01-17T10:50:06.005Z,7.35
2023-01-17T10:52:04.366Z,4.93
2023-01-17T10:54:07.185Z,3.28
2023-01-17T10:55:53.479Z,5.20
2023-01-17T10:57:27.216Z,4.10
2023-01-17T10:59:16.121Z,2.97
2023-01-17T11:02:33.854Z,4.30
2023-01-17T11:04:17.824Z,3.25
2023-01-17T11:06:22.044Z,3.95
2023-01-17T11:08:02.956Z,4.53
2023-01-17T11:09:40.567Z,3.28
2023-01-17T11:11:12.404Z,5.68
2023-01-17T11:12:47.665Z,3.60
2023-01-17T11:14:24.119Z,4.70
2023-01-17T11:16:03.473Z,2.38
2023-01-17T11:17:41.869Z,9.80
2023-01-17T11:19:32.558Z,3.65
2023-01-17T11:21:14.551Z,6.85
2023-01-17T11:23:09.719Z,7.88
2023-01-17T11:26:34.540Z,2.75
2023-01-17T11:28:19.651Z,2.92
2023-01-17T11:30:16.464Z,4.05
2023-01-17T11:31:48.223Z,2.63
2023-01-17T11:33:48.238Z,2.53
2023-01-17T11:35:31.087Z,3.45
2023-01-17T11:37:33.281Z,4.78
2023-01-17T11:39:17.151Z,3.95
2023-01-17T11:40:50.016Z,4.35
2023-01-17T11:42:38.749Z,7.15
2023-01-17T11:46:15.526Z,7.40
2023-01-17T11:47:47.331Z,5.85
2023-01-17T11:49:25.290Z,5.60
2023-01-17T11:50:59.030Z,6.30
2023-01-17T11:52:39.593Z,6.05
2023-01-17T11:54:30.201Z,6.55
2023-01-17T11:56:21.423Z,6.75
2023-01-17T11:57:56.492Z,14.80
2023-01-17T11:59:35.287Z,6.25
2023-01-17T12:01:20.018Z,6.25
2023-01-17T12:03:04.027Z,5.75
2023-01-17T12:04:42.958Z,7.30
2023-01-17T12:06:21.151Z,8.93
2023-01-17T12:08:24.607Z,6.95
2023-01-17T12:10:02.187Z,10.15
2023-01-17T12:12:06.537Z,6.82
2023-01-17T12:14:01.044Z,8.02
2023-01-17T12:16:31.246Z,7.55
2023-01-17T12:18:12.003Z,7.60
2023-01-17T12:20:06.647Z,5.93
2023-01-17T12:21:38.273Z,6.03
2023-01-17T12:23:23.169Z,6.18
2023-01-17T12:25:16.481Z,5.03
2023-01-17T12:27:29.403Z,4.47
2023-01-17T12:29:23.088Z,2.65
2023-01-17T12:31:26.282Z,2.45
2023-01-17T12:33:13.380Z,3.30
2023-01-17T12:34:55.585Z,2.92
2023-01-17T12:36:45.687Z,3.60
2023-01-17T12:38:45.802Z,3.97
2023-01-17T12:40:32.808Z,2.72
2023-01-17T12:42:14.564Z,6.07
2023-01-17T12:43:47.002Z,5.93
2023-01-17T12:45:24.413Z,4.90
2023-01-17T12:47:02.919Z,5.40
2023-01-17T12:48:39.398Z,3.70
2023-01-17T12:50:38.002Z,4.78
2023-01-17T12:52:25.141Z,4.97
2023-01-17T12:54:04.399Z,5.38
2023-01-17T12:55:43.131Z,6.38
2023-01-17T12:57:23.286Z,6.53
2023-01-17T12:59:03.563Z,5.45
2023-01-17T13:00:39.015Z,4.85
2023-01-17T13:02:20.327Z,6.63
2023-01-17T13:04:16.720Z,3.85
2023-01-17T13:05:50.591Z,5.55
2023-01-17T13:07:33.110Z,3.58
2023-01-17T13:09:05.574Z,3.47
2023-01-17T13:10:55.776Z,4.57
2023-01-17T13:12:31.445Z,4.03
2023-01-17T13:14:06.158Z,7.78
2023-01-17T13:15:39.808Z,5.68
2023-01-17T13:17:46.576Z,5.88
2023-01-17T13:19:31.348Z,5.22
2023-01-17T13:21:26.035Z,5.07
2023-01-17T13:23:06.493Z,3.45
2023-01-17T13:24:43.990Z,3.97
2023-01-17T13:26:43.689Z,4.03
2023-01-17T13:28:36.234Z,4.50
2023-01-17T13:30:43.245Z,6.07
2023-01-17T13:32:23.950Z,4.80
2023-01-17T13:33:58.359Z,3.53
2023-01-17T13:35:42.860Z,4.30
2023-01-17T13:37:42.094Z,3.33
2023-01-17T13:39:29.686Z,4.63
2023-01-17T13:41:27.481Z,7.32
2023-01-17T13:43:04.327Z,6.18
2023-01-17T13:44:36.624Z,3.80
2023-01-17T13:46:08.457Z,8.10
2023-01-17T13:47:41.620Z,3.95
2023-01-17T13:49:33.934Z,10.52
2023-01-17T13:51:07.256Z,3.45
2023-01-17T13:52:38.878Z,5.28
2023-01-17T13:54:30.694Z,4.85
2023-01-17T13:56:28.578Z,6.32
2023-01-17T13:58:00.360Z,4.53
2023-01-17T13:59:32.172Z,5.10
2023-01-17T14:01:03.886Z,5.13
2023-01-17T14:02:38.228Z,5.07
2023-01-17T14:04:11.762Z,3.47
2023-01-17T14:05:49.229Z,6.22
2023-01-17T14:07:26.538Z,4.55
2023-01-17T14:09:17.450Z,3.50
2023-01-17T14:10:53.455Z,3.53
2023-01-17T14:12:31.335Z,4.15
2023-01-17T14:14:40.017Z,7.28
2023-01-17T14:16:27.021Z,4.15
2023-01-17T14:18:03.774Z,3.35
2023-01-17T14:19:37.155Z,4.35
2023-01-17T14:21:21.434Z,6.57
2023-01-17T14:22:57.788Z,4.45
2023-01-17T14:24:30.598Z,5.40
2023-01-17T14:26:18.391Z,2.38
2023-01-17T14:28:00.419Z,5.55
2023-01-17T14:29:53.784Z,4.45
2023-01-17T14:31:27.967Z,2.88
2023-01-17T14:33:03.020Z,4.60
2023-01-17T14:34:35.909Z,5.03
2023-01-17T14:36:15.321Z,3.42
2023-01-17T14:37:52.907Z,7.05
2023-01-17T14:39:24.751Z,3.92
2023-01-17T14:41:04.863Z,5.63
2023-01-17T14:42:37.403Z,4.35
2023-01-17T14:44:11.609Z,3.58
2023-01-17T14:45:44.344Z,6.18
2023-01-17T14:47:17.369Z,5.10
2023-01-17T14:48:50.929Z,5.88
2023-01-17T14:50:26.626Z,4.07
2023-01-17T14:52:03.430Z,6.07
2023-01-17T14:53:35.212Z,5.88
2023-01-17T14:55:16.545Z,3.85
2023-01-17T14:56:48.283Z,7.85
2023-01-17T14:58:25.028Z,7.25
2023-01-17T15:00:19.067Z,4.70
2023-01-17T15:02:07.274Z,3.92
2023-01-17T15:05:24.349Z,7.53
2023-01-17T15:06:58.501Z,7.88
2023-01-17T15:08:35.713Z,6.82
2023-01-17T15:10:14.687Z,7.18
2023-01-17T15:11:48.688Z,6.10
2023-01-17T15:13:43.511Z,6.30
2023-01-17T15:15:32.077Z,7.50
2023-01-17T15:17:24.441Z,7.60
2023-01-17T15:18:57.323Z,14.63
2023-01-17T15:20:29.121Z,8.57
2023-01-17T15:22:00.870Z,9.68
2023-01-17T15:23:37.385Z,9.43
2023-01-17T15:25:11.788Z,10.63
2023-01-17T15:26:43.982Z,11.13
2023-01-17T15:28:16.725Z,10.85
2023-01-17T15:29:49.024Z,9.38
2023-01-17T15:31:40.036Z,9.27
2023-01-17T15:33:17.365Z,7.40
2023-01-17T15:34:51.228Z,7.72
2023-01-17T15:36:34.439Z,7.43
2023-01-17T15:38:06.092Z,16.35
2023-01-17T15:39:40.473Z,8.15
2023-01-17T15:41:17.217Z,38.30
2023-01-17T15:42:53.026Z,15.10
2023-01-17T15:44:49.690Z,11.75
2023-01-17T15:46:29.581Z,9.00
2023-01-17T15:48:33.562Z,10.60
2023-01-17T15:50:20.587Z,55.15
2023-01-17T15:52:08.893Z,33.38
2023-01-17T15:53:42.626Z,14.07
2023-01-17T15:55:14.795Z,7.22
2023-01-17T15:56:46.515Z,10.55
2023-01-17T15:58:27.640Z,10.15
2023-01-17T15:59:59.932Z,11.48
2023-01-17T16:01:32.207Z,13.57
2023-01-17T16:03:25.969Z,13.23
2023-01-17T16:04:59.100Z,11.68
2023-01-17T16:06:45.576Z,11.98
2023-01-17T16:08:24.342Z,95.20
2023-01-17T16:10:14.334Z,100.75
2023-01-17T16:11:46.007Z,53.92
2023-01-17T16:13:17.785Z,26.75
2023-01-17T16:15:06.199Z,8.82
2023-01-17T16:16:50.813Z,6.93
2023-01-17T16:18:24.659Z,5.65
2023-01-17T16:19:56.599Z,57.33
2023-01-17T16:21:30.501Z,48.25
2023-01-17T16:23:02.798Z,13.95
2023-01-17T16:24:34.433Z,8.27
2023-01-17T16:26:06.140Z,8.55
2023-01-17T16:27:37.929Z,8.95
2023-01-17T16:29:10.174Z,8.52
2023-01-17T16:30:42.195Z,10.73
2023-01-17T16:32:15.780Z,6.28
2023-01-17T16:33:49.211Z,9.05
2023-01-17T16:35:23.415Z,10.45
2023-01-17T16:36:55.218Z,6.78
2023-01-17T16:38:26.854Z,6.13
2023-01-17T16:39:58.558Z,13.48
2023-01-17T16:41:30.234Z,10.13
2023-01-17T16:43:01.933Z,8.70
2023-01-17T16:44:33.648Z,8.30
2023-01-17T16:46:06.085Z,8.32
2023-01-17T16:47:40.894Z,8.23
2023-01-17T16:49:12.605Z,7.63
2023-01-17T16:50:48.218Z,8.95
2023-01-17T16:52:19.933Z,3.88
2023-01-17T16:53:51.660Z,5.03
2023-01-17T16:55:25.110Z,8.20
2023-01-17T16:56:56.785Z,26.30
2023-01-17T16:58:28.575Z,9.90
2023-01-17T17:00:00.365Z,7.43
2023-01-17T17:01:32.205Z,13.82
2023-01-17T17:03:04.087Z,11.20
2023-01-17T17:04:35.969Z,9.75
2023-01-17T17:06:08.809Z,7.55
2023-01-17T17:07:43.033Z,4.65
2023-01-17T17:09:14.753Z,8.52
2023-01-17T17:10:46.456Z,15.27
2023-01-17T17:12:18.204Z,11.10
2023-01-17T17:13:51.295Z,15.32
2023-01-17T17:15:22.998Z,7.78
2023-01-17T17:16:54.682Z,5.93
2023-01-17T17:18:27.455Z,9.68
2023-01-17T17:20:00.165Z,10.70
2023-01-17T17:21:34.273Z,11.13
2023-01-17T17:23:07.063Z,11.18
2023-01-17T17:24:39.642Z,12.27
2023-01-17T17:26:12.239Z,9.75
2023-01-17T17:27:44.272Z,8.80
2023-01-17T17:29:16.580Z,9.15
2023-01-17T17:30:48.791Z,6.47
2023-01-17T17:32:21.926Z,11.20
2023-01-17T17:33:59.392Z,10.85
2023-01-17T17:35:35.024Z,8.30
2023-01-17T17:37:07.636Z,6.18
2023-01-17T17:38:54.169Z,9.45
2023-01-17T17:40:26.487Z,7.63
2023-01-17T17:41:58.999Z,9.60
2023-01-17T17:43:31.195Z,10.05
2023-01-17T17:45:03.293Z,11.45
2023-01-17T17:46:37.397Z,11.90
2023-01-17T17:48:09.614Z,14.15
2023-01-17T17:49:41.508Z,13.70
2023-01-17T17:51:26.231Z,9.90
2023-01-17T17:52:58.201Z,10.80
2023-01-17T17:54:30.324Z,7.60
2023-01-17T17:56:04.220Z,9.07
2023-01-17T17:57:36.172Z,6.65
2023-01-17T17:59:09.700Z,8.13
2023-01-17T18:00:41.888Z,9.10
2023-01-17T18:02:14.138Z,11.30
2023-01-17T18:03:46.416Z,12.10
2023-01-17T18:05:18.630Z,16.50
2023-01-17T18:06:50.590Z,10.00
2023-01-17T18:08:23.063Z,8.70
2023-01-17T18:09:55.524Z,9.50
2023-01-17T18:11:28.618Z,7.50
2023-01-17T18:13:00.610Z,8.70
2023-01-17T18:14:32.560Z,14.95
2023-01-17T18:16:10.386Z,15.95
2023-01-17T18:17:42.244Z,13.52
2023-01-17T18:19:18.079Z,34.45
2023-01-17T18:20:50.234Z,13.50
2023-01-17T18:22:22.094Z,14.63
2023-01-17T18:24:00.039Z,11.25
2023-01-17T18:25:36.456Z,9.85
2023-01-17T18:27:10.504Z,18.33
2023-01-17T18:28:42.669Z,13.82
2023-01-17T18:30:14.688Z,11.00
2023-01-17T18:31:47.864Z,11.40
2023-01-17T18:33:19.534Z,14.05
2023-01-17T18:34:51.540Z,8.02
2023-01-17T18:36:24.052Z,10.23
2023-01-17T18:37:58.026Z,11.50
2023-01-17T18:39:30.845Z,14.45
2023-01-17T18:41:03.307Z,15.77
2023-01-17T18:42:35.105Z,16.33
2023-01-17T18:44:07.778Z,17.05
2023-01-17T18:45:39.650Z,20.40
2023-01-17T18:47:13.036Z,12.00
2023-01-17T18:48:45.324Z,12.50
2023-01-17T18:50:17.010Z,13.60
2023-01-17T18:51:51.918Z,11.27
2023-01-17T18:53:24.117Z,12.55
2023-01-17T18:54:55.808Z,12.93
2023-01-17T18:56:30.577Z,12.02
2023-01-17T18:58:02.329Z,16.67
2023-01-17T18:59:34.046Z,16.17
2023-01-17T19:01:16.862Z,12.93
2023-01-17T19:02:49.035Z,13.85
2023-01-17T19:04:21.646Z,16.23
2023-01-17T19:05:53.378Z,20.50
2023-01-17T19:07:29.131Z,21.08
2023-01-17T19:09:01.667Z,26.25
2023-01-17T19:10:33.701Z,21.25
2023-01-17T19:12:05.561Z,18.48
2023-01-17T19:13:39.049Z,12.32
2023-01-17T19:15:11.007Z,10.45
2023-01-17T19:16:43.449Z,19.58
2023-01-17T19:18:15.142Z,21.77
2023-01-17T19:19:49.045Z,31.83
2023-01-17T19:21:23.320Z,16.33
2023-01-17T19:22:55.317Z,16.73
2023-01-17T19:24:27.113Z,35.22
2023-01-17T19:25:58.813Z,18.75
2023-01-17T19:27:30.728Z,17.08
2023-01-17T19:29:06.750Z,16.88
2023-01-17T19:30:40.048Z,24.30
2023-01-17T19:32:11.769Z,12.77
2023-01-17T19:33:46.960Z,13.23
2023-01-17T19:35:21.790Z,15.68
2023-01-17T19:36:55.619Z,16.90
2023-01-17T19:38:27.993Z,12.13
2023-01-17T19:40:00.141Z,10.57
2023-01-17T19:41:34.087Z,10.57
2023-01-17T19:43:06.192Z,10.77
2023-01-17T19:44:38.318Z,11.13
2023-01-17T19:46:11.733Z,24.73
2023-01-17T19:47:44.371Z,13.95
2023-01-17T19:49:19.879Z,16.92
2023-01-17T19:50:52.277Z,13.98
2023-01-17T19:52:24.600Z,21.02
2023-01-17T19:53:59.897Z,21.23
2023-01-17T19:55:31.687Z,18.20
2023-01-17T19:57:03.661Z,15.43
2023-01-17T19:58:35.826Z,15.85
2023-01-17T20:00:12.958Z,15.23
2023-01-17T20:01:45.066Z,13.98
2023-01-17T20:03:17.353Z,12.73
2023-01-17T20:04:49.280Z,11.77
2023-01-17T20:06:23.215Z,6.80
2023-01-17T20:07:55.589Z,10.73
2023-01-17T20:09:27.947Z,10.07
2023-01-17T20:11:06.313Z,18.33
2023-01-17T20:12:38.608Z,11.07
2023-01-17T20:14:14.297Z,15.00
2023-01-17T20:15:47.235Z,13.85
2023-01-17T20:17:19.589Z,17.92
2023-01-17T20:18:52.488Z,10.82
2023-01-17T20:20:24.696Z,11.30
2023-01-17T20:21:57.566Z,10.55
2023-01-17T20:23:30.036Z,8.55
2023-01-17T20:25:02.426Z,12.80
2023-01-17T20:26:35.231Z,9.05
2023-01-17T20:28:07.650Z,12.00
2023-01-17T20:29:40.777Z,9.45
2023-01-17T20:31:22.345Z,9.90
2023-01-17T20:32:55.775Z,12.68
2023-01-17T20:34:27.859Z,15.75
2023-01-17T20:36:10.505Z,12.57
2023-01-17T20:37:43.269Z,11.38
2023-01-17T20:39:16.181Z,13.30
2023-01-17T20:40:55.392Z,10.32
2023-01-17T20:42:27.281Z,12.60
2023-01-17T20:44:01.343Z,16.42
2023-01-17T20:45:33.388Z,9.85
2023-01-17T20:47:05.653Z,13.10
2023-01-17T20:48:43.096Z,11.68
2023-01-17T20:50:15.922Z,17.05
2023-01-17T20:51:49.250Z,17.00
2023-01-17T20:53:22.147Z,19.50
2023-01-17T20:54:54.213Z,20.60
2023-01-17T20:56:26.704Z,19.17
2023-01-17T20:57:59.851Z,17.17
2023-01-17T20:59:32.290Z,21.25
2023-01-17T21:01:04.926Z,16.52
2023-01-17T21:02:36.938Z,14.38
2023-01-17T21:04:10.295Z,16.50
2023-01-17T21:05:42.187Z,16.83
2023-01-17T21:07:14.034Z,16.77
2023-01-17T21:08:46.975Z,20.05
2023-01-17T21:10:18.700Z,18.30
2023-01-17T21:11:51.913Z,26.38
2023-01-17T21:13:24.500Z,61.88
2023-01-17T21:14:56.427Z,37.22
2023-01-17T21:16:28.876Z,17.50
2023-01-17T21:18:00.829Z,15.48
2023-01-17T21:19:32.836Z,15.10
2023-01-17T21:21:11.067Z,10.20
2023-01-17T21:22:43.270Z,13.13
2023-01-17T21:24:18.903Z,13.85
2023-01-17T21:25:55.676Z,13.73
2023-01-17T21:27:27.885Z,16.38
2023-01-17T21:29:01.780Z,13.27
2023-01-17T21:30:33.831Z,12.82